sensor_id;sensor_type;location;lat;lon;timestamp;P1;durP1;ratioP1;P2;durP2;ratioP2
14294;SDS011;7231;59.370;18.016;2022-09-27T00:01:06;5.80;;;3.63;;
14294;SDS011;7231;59.370;18.016;2022-09-27T00:03:36;6.47;;;3.90;;
14294;SDS011;7231;59.370;18.016;2022-09-27T00:06:06;5.93;;;4.03;;
14294;SDS011;7231;59.370;18.016;2022-09-27T00:08:36;5.00;;;3.92;;
14294;SDS011;7231;59.370;18.016;2022-09-27T00:11:04;5.50;;;3.30;;
14294;SDS011;7231;59.370;18.016;2022-09-27T00:13:34;6.55;;;3.22;;
14294;SDS011;7231;59.370;18.016;2022-09-27T00:16:04;3.75;;;2.50;;
14294;SDS011;7231;59.370;18.016;2022-09-27T00:18:32;5.13;;;2.47;;
14294;SDS011;7231;59.370;18.016;2022-09-27T00:21:04;3.08;;;2.08;;
14294;SDS011;7231;59.370;18.016;2022-09-27T00:23:34;2.50;;;2.28;;
14294;SDS011;7231;59.370;18.016;2022-09-27T00:26:02;2.42;;;2.00;;
14294;SDS011;7231;59.370;18.016;2022-09-27T00:28:30;3.20;;;2.22;;
14294;SDS011;7231;59.370;18.016;2022-09-27T00:30:59;2.55;;;2.22;;
14294;SDS011;7231;59.370;18.016;2022-09-27T00:33:29;2.78;;;1.83;;
14294;SDS011;7231;59.370;18.016;2022-09-27T00:36:02;2.85;;;1.70;;
14294;SDS011;7231;59.370;18.016;2022-09-27T00:38:31;1.63;;;1.52;;
14294;SDS011;7231;59.370;18.016;2022-09-27T00:40:59;4.93;;;1.58;;
14294;SDS011;7231;59.370;18.016;2022-09-27T00:43:33;1.85;;;1.30;;
14294;SDS011;7231;59.370;18.016;2022-09-27T00:46:10;3.85;;;1.60;;
14294;SDS011;7231;59.370;18.016;2022-09-27T00:48:43;4.70;;;1.70;;
14294;SDS011;7231;59.370;18.016;2022-09-27T00:51:12;3.70;;;1.33;;
14294;SDS011;7231;59.370;18.016;2022-09-27T00:53:41;2.05;;;1.42;;
14294;SDS011;7231;59.370;18.016;2022-09-27T00:56:14;2.33;;;1.50;;
14294;SDS011;7231;59.370;18.016;2022-09-27T00:58:45;3.28;;;1.33;;
14294;SDS011;7231;59.370;18.016;2022-09-27T01:01:17;2.25;;;1.23;;
14294;SDS011;7231;59.370;18.016;2022-09-27T01:03:48;2.10;;;1.30;;
14294;SDS011;7231;59.370;18.016;2022-09-27T01:06:22;4.10;;;1.42;;
14294;SDS011;7231;59.370;18.016;2022-09-27T01:08:50;2.60;;;1.40;;
14294;SDS011;7231;59.370;18.016;2022-09-27T01:11:22;3.75;;;1.65;;
14294;SDS011;7231;59.370;18.016;2022-09-27T01:14:05;4.78;;;1.65;;
14294;SDS011;7231;59.370;18.016;2022-09-27T01:16:46;3.38;;;1.50;;
14294;SDS011;7231;59.370;18.016;2022-09-27T01:19:31;2.45;;;1.30;;
14294;SDS011;7231;59.370;18.016;2022-09-27T01:22:17;4.65;;;1.60;;
14294;SDS011;7231;59.370;18.016;2022-09-27T01:25:06;3.10;;;1.42;;
14294;SDS011;7231;59.370;18.016;2022-09-27T01:30:48;2.88;;;1.50;;
14294;SDS011;7231;59.370;18.016;2022-09-27T01:33:22;3.45;;;1.40;;
14294;SDS011;7231;59.370;18.016;2022-09-27T01:36:11;3.53;;;1.50;;
14294;SDS011;7231;59.370;18.016;2022-09-27T01:38:50;2.50;;;1.38;;
14294;SDS011;7231;59.370;18.016;2022-09-27T01:41:29;3.83;;;1.50;;
14294;SDS011;7231;59.370;18.016;2022-09-27T01:44:03;3.50;;;1.83;;
14294;SDS011;7231;59.370;18.016;2022-09-27T01:46:40;2.53;;;1.50;;
14294;SDS011;7231;59.370;18.016;2022-09-27T01:49:12;3.75;;;1.63;;
14294;SDS011;7231;59.370;18.016;2022-09-27T01:51:44;4.53;;;1.65;;
14294;SDS011;7231;59.370;18.016;2022-09-27T01:54:16;4.55;;;1.60;;
14294;SDS011;7231;59.370;18.016;2022-09-27T01:56:50;1.83;;;1.50;;
14294;SDS011;7231;59.370;18.016;2022-09-27T01:59:21;4.68;;;1.90;;
14294;SDS011;7231;59.370;18.016;2022-09-27T02:01:57;3.92;;;1.80;;
14294;SDS011;7231;59.370;18.016;2022-09-27T02:04:30;6.00;;;1.70;;
14294;SDS011;7231;59.370;18.016;2022-09-27T02:07:01;6.15;;;1.70;;
14294;SDS011;7231;59.370;18.016;2022-09-27T02:09:34;4.10;;;2.05;;
14294;SDS011;7231;59.370;18.016;2022-09-27T02:12:07;5.38;;;1.85;;
14294;SDS011;7231;59.370;18.016;2022-09-27T02:14:40;3.92;;;2.10;;
14294;SDS011;7231;59.370;18.016;2022-09-27T02:17:15;7.60;;;2.30;;
14294;SDS011;7231;59.370;18.016;2022-09-27T02:19:52;4.32;;;2.20;;
14294;SDS011;7231;59.370;18.016;2022-09-27T02:22:31;5.57;;;2.20;;
14294;SDS011;7231;59.370;18.016;2022-09-27T02:25:04;6.32;;;2.63;;
14294;SDS011;7231;59.370;18.016;2022-09-27T02:27:44;6.30;;;2.50;;
14294;SDS011;7231;59.370;18.016;2022-09-27T02:30:18;4.45;;;2.33;;
14294;SDS011;7231;59.370;18.016;2022-09-27T02:32:48;3.90;;;2.20;;
14294;SDS011;7231;59.370;18.016;2022-09-27T02:35:17;5.00;;;1.95;;
14294;SDS011;7231;59.370;18.016;2022-09-27T02:37:49;8.50;;;2.65;;
14294;SDS011;7231;59.370;18.016;2022-09-27T02:40:17;4.88;;;2.47;;
14294;SDS011;7231;59.370;18.016;2022-09-27T02:42:45;5.93;;;2.40;;
14294;SDS011;7231;59.370;18.016;2022-09-27T02:45:14;5.80;;;1.85;;
14294;SDS011;7231;59.370;18.016;2022-09-27T02:47:58;6.22;;;2.20;;
14294;SDS011;7231;59.370;18.016;2022-09-27T02:50:46;6.82;;;2.15;;
14294;SDS011;7231;59.370;18.016;2022-09-27T02:53:30;6.22;;;2.08;;
14294;SDS011;7231;59.370;18.016;2022-09-27T02:56:08;6.97;;;2.13;;
14294;SDS011;7231;59.370;18.016;2022-09-27T02:58:48;4.07;;;2.15;;
14294;SDS011;7231;59.370;18.016;2022-09-27T03:01:26;6.38;;;2.13;;
14294;SDS011;7231;59.370;18.016;2022-09-27T03:04:05;3.22;;;2.10;;
14294;SDS011;7231;59.370;18.016;2022-09-27T03:06:42;10.38;;;2.70;;
14294;SDS011;7231;59.370;18.016;2022-09-27T03:09:16;5.20;;;2.67;;
14294;SDS011;7231;59.370;18.016;2022-09-27T03:11:46;6.22;;;2.38;;
14294;SDS011;7231;59.370;18.016;2022-09-27T03:14:14;5.13;;;2.45;;
14294;SDS011;7231;59.370;18.016;2022-09-27T03:16:42;6.60;;;2.65;;
14294;SDS011;7231;59.370;18.016;2022-09-27T03:19:12;5.28;;;2.25;;
14294;SDS011;7231;59.370;18.016;2022-09-27T03:21:40;5.93;;;2.33;;
14294;SDS011;7231;59.370;18.016;2022-09-27T03:24:08;5.82;;;2.33;;
14294;SDS011;7231;59.370;18.016;2022-09-27T03:26:36;7.28;;;2.40;;
14294;SDS011;7231;59.370;18.016;2022-09-27T03:29:04;5.32;;;2.55;;
14294;SDS011;7231;59.370;18.016;2022-09-27T03:31:31;6.65;;;2.70;;
14294;SDS011;7231;59.370;18.016;2022-09-27T03:33:59;6.50;;;2.40;;
14294;SDS011;7231;59.370;18.016;2022-09-27T03:36:29;6.18;;;2.35;;
14294;SDS011;7231;59.370;18.016;2022-09-27T03:38:56;5.57;;;2.20;;
14294;SDS011;7231;59.370;18.016;2022-09-27T03:41:24;4.18;;;1.95;;
14294;SDS011;7231;59.370;18.016;2022-09-27T03:43:52;4.72;;;1.80;;
14294;SDS011;7231;59.370;18.016;2022-09-27T03:46:23;7.13;;;1.80;;
14294;SDS011;7231;59.370;18.016;2022-09-27T03:48:51;6.63;;;2.25;;
14294;SDS011;7231;59.370;18.016;2022-09-27T03:51:19;5.93;;;2.08;;
14294;SDS011;7231;59.370;18.016;2022-09-27T03:53:48;4.97;;;2.00;;
14294;SDS011;7231;59.370;18.016;2022-09-27T03:56:16;7.45;;;2.30;;
14294;SDS011;7231;59.370;18.016;2022-09-27T03:58:44;3.17;;;1.92;;
14294;SDS011;7231;59.370;18.016;2022-09-27T04:01:12;4.68;;;1.75;;
14294;SDS011;7231;59.370;18.016;2022-09-27T04:03:41;4.20;;;1.90;;
14294;SDS011;7231;59.370;18.016;2022-09-27T04:06:11;3.50;;;1.63;;
14294;SDS011;7231;59.370;18.016;2022-09-27T04:08:39;7.38;;;2.00;;
14294;SDS011;7231;59.370;18.016;2022-09-27T04:11:08;4.22;;;1.80;;
14294;SDS011;7231;59.370;18.016;2022-09-27T04:13:36;4.47;;;1.77;;
14294;SDS011;7231;59.370;18.016;2022-09-27T04:16:04;4.47;;;2.00;;
14294;SDS011;7231;59.370;18.016;2022-09-27T04:18:33;7.70;;;2.00;;
14294;SDS011;7231;59.370;18.016;2022-09-27T04:21:01;4.63;;;2.30;;
14294;SDS011;7231;59.370;18.016;2022-09-27T04:23:29;4.90;;;2.55;;
14294;SDS011;7231;59.370;18.016;2022-09-27T04:25:57;7.25;;;2.47;;
14294;SDS011;7231;59.370;18.016;2022-09-27T04:28:26;6.32;;;2.30;;
14294;SDS011;7231;59.370;18.016;2022-09-27T04:30:55;5.30;;;2.20;;
14294;SDS011;7231;59.370;18.016;2022-09-27T04:33:23;7.32;;;2.63;;
14294;SDS011;7231;59.370;18.016;2022-09-27T04:35:51;4.45;;;2.05;;
14294;SDS011;7231;59.370;18.016;2022-09-27T04:38:37;2.38;;;1.75;;
14294;SDS011;7231;59.370;18.016;2022-09-27T04:41:05;4.15;;;2.10;;
14294;SDS011;7231;59.370;18.016;2022-09-27T04:43:34;5.35;;;2.10;;
14294;SDS011;7231;59.370;18.016;2022-09-27T04:46:02;4.35;;;2.25;;
14294;SDS011;7231;59.370;18.016;2022-09-27T04:48:31;4.03;;;2.38;;
14294;SDS011;7231;59.370;18.016;2022-09-27T04:50:59;3.70;;;2.28;;
14294;SDS011;7231;59.370;18.016;2022-09-27T04:53:29;7.32;;;2.40;;
14294;SDS011;7231;59.370;18.016;2022-09-27T04:55:57;5.22;;;2.17;;
14294;SDS011;7231;59.370;18.016;2022-09-27T04:58:31;3.90;;;2.17;;
14294;SDS011;7231;59.370;18.016;2022-09-27T05:01:02;7.20;;;2.50;;
14294;SDS011;7231;59.370;18.016;2022-09-27T05:03:31;3.13;;;2.15;;
14294;SDS011;7231;59.370;18.016;2022-09-27T05:05:59;5.45;;;2.38;;
14294;SDS011;7231;59.370;18.016;2022-09-27T05:08:27;6.07;;;2.40;;
14294;SDS011;7231;59.370;18.016;2022-09-27T05:10:55;5.72;;;2.33;;
14294;SDS011;7231;59.370;18.016;2022-09-27T05:13:23;6.15;;;2.55;;
14294;SDS011;7231;59.370;18.016;2022-09-27T05:15:51;4.32;;;2.30;;
14294;SDS011;7231;59.370;18.016;2022-09-27T05:18:21;7.22;;;2.25;;
14294;SDS011;7231;59.370;18.016;2022-09-27T05:20:49;7.55;;;2.20;;
14294;SDS011;7231;59.370;18.016;2022-09-27T05:23:18;4.60;;;2.10;;
14294;SDS011;7231;59.370;18.016;2022-09-27T05:25:46;5.25;;;1.98;;
14294;SDS011;7231;59.370;18.016;2022-09-27T05:28:14;5.25;;;1.98;;
14294;SDS011;7231;59.370;18.016;2022-09-27T05:30:42;7.28;;;2.10;;
14294;SDS011;7231;59.370;18.016;2022-09-27T05:33:11;6.93;;;1.92;;
14294;SDS011;7231;59.370;18.016;2022-09-27T05:35:40;5.93;;;2.17;;
14294;SDS011;7231;59.370;18.016;2022-09-27T05:38:11;5.13;;;1.77;;
14294;SDS011;7231;59.370;18.016;2022-09-27T05:40:39;6.40;;;1.98;;
14294;SDS011;7231;59.370;18.016;2022-09-27T05:43:09;5.35;;;1.70;;
14294;SDS011;7231;59.370;18.016;2022-09-27T05:45:38;4.57;;;1.83;;
14294;SDS011;7231;59.370;18.016;2022-09-27T05:48:06;4.35;;;1.50;;
14294;SDS011;7231;59.370;18.016;2022-09-27T05:50:34;5.22;;;1.70;;
14294;SDS011;7231;59.370;18.016;2022-09-27T05:53:03;3.70;;;1.90;;
14294;SDS011;7231;59.370;18.016;2022-09-27T05:55:31;5.40;;;1.80;;
14294;SDS011;7231;59.370;18.016;2022-09-27T05:58:00;5.90;;;1.90;;
14294;SDS011;7231;59.370;18.016;2022-09-27T06:00:29;6.90;;;1.90;;
14294;SDS011;7231;59.370;18.016;2022-09-27T06:02:58;5.10;;;1.55;;
14294;SDS011;7231;59.370;18.016;2022-09-27T06:05:27;4.55;;;1.95;;
14294;SDS011;7231;59.370;18.016;2022-09-27T06:07:57;5.13;;;2.05;;
14294;SDS011;7231;59.370;18.016;2022-09-27T06:10:28;7.93;;;2.30;;
14294;SDS011;7231;59.370;18.016;2022-09-27T06:12:58;4.40;;;1.70;;
14294;SDS011;7231;59.370;18.016;2022-09-27T06:15:27;3.53;;;1.77;;
14294;SDS011;7231;59.370;18.016;2022-09-27T06:17:56;5.32;;;1.83;;
14294;SDS011;7231;59.370;18.016;2022-09-27T06:20:29;1.52;;;1.33;;
14294;SDS011;7231;59.370;18.016;2022-09-27T06:23:02;3.33;;;1.63;;
14294;SDS011;7231;59.370;18.016;2022-09-27T06:25:32;3.20;;;1.63;;
14294;SDS011;7231;59.370;18.016;2022-09-27T06:28:00;4.38;;;1.92;;
14294;SDS011;7231;59.370;18.016;2022-09-27T06:30:28;5.13;;;1.70;;
14294;SDS011;7231;59.370;18.016;2022-09-27T06:32:57;6.15;;;1.80;;
14294;SDS011;7231;59.370;18.016;2022-09-27T06:35:26;4.47;;;2.05;;
14294;SDS011;7231;59.370;18.016;2022-09-27T06:37:56;4.78;;;1.90;;
14294;SDS011;7231;59.370;18.016;2022-09-27T06:40:24;5.55;;;2.22;;
14294;SDS011;7231;59.370;18.016;2022-09-27T06:42:55;5.00;;;1.80;;
14294;SDS011;7231;59.370;18.016;2022-09-27T06:45:28;2.80;;;1.48;;
14294;SDS011;7231;59.370;18.016;2022-09-27T06:47:57;2.55;;;1.75;;
14294;SDS011;7231;59.370;18.016;2022-09-27T06:50:27;5.18;;;1.83;;
14294;SDS011;7231;59.370;18.016;2022-09-27T06:52:56;4.38;;;1.55;;
14294;SDS011;7231;59.370;18.016;2022-09-27T06:55:24;4.97;;;1.52;;
14294;SDS011;7231;59.370;18.016;2022-09-27T06:57:52;2.90;;;1.50;;
14294;SDS011;7231;59.370;18.016;2022-09-27T07:00:40;4.70;;;1.50;;
14294;SDS011;7231;59.370;18.016;2022-09-27T07:03:09;2.30;;;1.40;;
14294;SDS011;7231;59.370;18.016;2022-09-27T07:05:38;4.70;;;1.27;;
14294;SDS011;7231;59.370;18.016;2022-09-27T07:08:08;4.88;;;1.48;;
14294;SDS011;7231;59.370;18.016;2022-09-27T07:10:38;4.10;;;1.10;;
14294;SDS011;7231;59.370;18.016;2022-09-27T07:13:08;3.83;;;1.40;;
14294;SDS011;7231;59.370;18.016;2022-09-27T07:15:39;4.18;;;1.42;;
14294;SDS011;7231;59.370;18.016;2022-09-27T07:18:07;4.78;;;1.40;;
14294;SDS011;7231;59.370;18.016;2022-09-27T07:20:35;3.88;;;0.90;;
14294;SDS011;7231;59.370;18.016;2022-09-27T07:23:04;2.53;;;1.15;;
14294;SDS011;7231;59.370;18.016;2022-09-27T07:25:32;3.33;;;1.00;;
14294;SDS011;7231;59.370;18.016;2022-09-27T07:28:01;3.80;;;1.10;;
14294;SDS011;7231;59.370;18.016;2022-09-27T07:30:32;3.25;;;1.10;;
14294;SDS011;7231;59.370;18.016;2022-09-27T07:33:02;3.60;;;1.13;;
14294;SDS011;7231;59.370;18.016;2022-09-27T07:35:32;3.33;;;1.10;;
14294;SDS011;7231;59.370;18.016;2022-09-27T07:38:00;3.17;;;0.90;;
14294;SDS011;7231;59.370;18.016;2022-09-27T07:40:29;4.97;;;0.98;;
14294;SDS011;7231;59.370;18.016;2022-09-27T07:42:57;2.60;;;0.80;;
14294;SDS011;7231;59.370;18.016;2022-09-27T07:45:25;3.75;;;0.98;;
14294;SDS011;7231;59.370;18.016;2022-09-27T07:47:54;2.78;;;0.90;;
14294;SDS011;7231;59.370;18.016;2022-09-27T07:50:22;1.55;;;0.80;;
14294;SDS011;7231;59.370;18.016;2022-09-27T07:52:51;3.63;;;1.05;;
14294;SDS011;7231;59.370;18.016;2022-09-27T07:55:19;3.60;;;1.10;;
14294;SDS011;7231;59.370;18.016;2022-09-27T07:57:48;3.15;;;0.90;;
14294;SDS011;7231;59.370;18.016;2022-09-27T08:00:16;3.78;;;1.02;;
14294;SDS011;7231;59.370;18.016;2022-09-27T08:02:45;7.28;;;1.40;;
14294;SDS011;7231;59.370;18.016;2022-09-27T08:05:15;3.25;;;1.15;;
14294;SDS011;7231;59.370;18.016;2022-09-27T08:07:43;4.57;;;1.00;;
14294;SDS011;7231;59.370;18.016;2022-09-27T08:10:10;3.67;;;1.13;;
14294;SDS011;7231;59.370;18.016;2022-09-27T08:12:39;4.45;;;1.13;;
14294;SDS011;7231;59.370;18.016;2022-09-27T08:15:07;3.50;;;1.30;;
14294;SDS011;7231;59.370;18.016;2022-09-27T08:17:35;2.75;;;1.27;;
14294;SDS011;7231;59.370;18.016;2022-09-27T08:20:03;3.10;;;1.25;;
14294;SDS011;7231;59.370;18.016;2022-09-27T08:22:34;3.92;;;1.15;;
14294;SDS011;7231;59.370;18.016;2022-09-27T08:25:07;2.20;;;1.10;;
14294;SDS011;7231;59.370;18.016;2022-09-27T08:27:35;2.95;;;1.38;;
14294;SDS011;7231;59.370;18.016;2022-09-27T08:30:03;2.85;;;1.52;;
14294;SDS011;7231;59.370;18.016;2022-09-27T08:32:32;5.22;;;1.60;;
14294;SDS011;7231;59.370;18.016;2022-09-27T08:35:00;2.80;;;1.45;;
14294;SDS011;7231;59.370;18.016;2022-09-27T08:37:28;3.78;;;1.40;;
14294;SDS011;7231;59.370;18.016;2022-09-27T08:39:57;4.30;;;1.30;;
14294;SDS011;7231;59.370;18.016;2022-09-27T08:42:27;5.25;;;1.63;;
14294;SDS011;7231;59.370;18.016;2022-09-27T08:45:07;4.18;;;1.48;;
14294;SDS011;7231;59.370;18.016;2022-09-27T08:47:41;6.75;;;1.40;;
14294;SDS011;7231;59.370;18.016;2022-09-27T08:50:19;3.20;;;1.40;;
14294;SDS011;7231;59.370;18.016;2022-09-27T08:52:53;5.13;;;1.65;;
14294;SDS011;7231;59.370;18.016;2022-09-27T08:55:29;3.30;;;1.50;;
14294;SDS011;7231;59.370;18.016;2022-09-27T08:58:03;2.95;;;1.70;;
14294;SDS011;7231;59.370;18.016;2022-09-27T09:00:39;3.75;;;1.60;;
14294;SDS011;7231;59.370;18.016;2022-09-27T09:03:11;6.30;;;2.10;;
14294;SDS011;7231;59.370;18.016;2022-09-27T09:05:48;4.95;;;1.75;;
14294;SDS011;7231;59.370;18.016;2022-09-27T09:08:24;4.03;;;1.70;;
14294;SDS011;7231;59.370;18.016;2022-09-27T09:11:09;3.20;;;1.90;;
14294;SDS011;7231;59.370;18.016;2022-09-27T09:14:07;3.03;;;2.05;;
14294;SDS011;7231;59.370;18.016;2022-09-27T09:16:50;5.03;;;3.00;;
14294;SDS011;7231;59.370;18.016;2022-09-27T09:19:36;4.32;;;3.30;;
14294;SDS011;7231;59.370;18.016;2022-09-27T09:22:24;6.70;;;4.32;;
14294;SDS011;7231;59.370;18.016;2022-09-27T09:25:11;6.55;;;3.75;;
14294;SDS011;7231;59.370;18.016;2022-09-27T09:27:53;4.80;;;3.83;;
14294;SDS011;7231;59.370;18.016;2022-09-27T09:30:34;4.05;;;3.70;;
14294;SDS011;7231;59.370;18.016;2022-09-27T09:33:13;4.32;;;3.90;;
14294;SDS011;7231;59.370;18.016;2022-09-27T09:35:49;4.45;;;3.78;;
14294;SDS011;7231;59.370;18.016;2022-09-27T09:38:26;5.65;;;4.15;;
14294;SDS011;7231;59.370;18.016;2022-09-27T09:41:02;4.82;;;4.20;;
14294;SDS011;7231;59.370;18.016;2022-09-27T09:43:36;5.18;;;3.97;;
14294;SDS011;7231;59.370;18.016;2022-09-27T09:46:10;6.30;;;3.97;;
14294;SDS011;7231;59.370;18.016;2022-09-27T09:48:44;6.13;;;4.00;;
14294;SDS011;7231;59.370;18.016;2022-09-27T09:51:17;7.88;;;4.35;;
14294;SDS011;7231;59.370;18.016;2022-09-27T09:53:50;6.45;;;4.43;;
14294;SDS011;7231;59.370;18.016;2022-09-27T09:56:23;5.10;;;3.92;;
14294;SDS011;7231;59.370;18.016;2022-09-27T09:58:56;5.53;;;4.13;;
14294;SDS011;7231;59.370;18.016;2022-09-27T10:01:27;4.68;;;4.18;;
14294;SDS011;7231;59.370;18.016;2022-09-27T10:04:00;5.22;;;4.10;;
14294;SDS011;7231;59.370;18.016;2022-09-27T10:06:29;4.47;;;4.07;;
14294;SDS011;7231;59.370;18.016;2022-09-27T10:08:57;4.63;;;4.20;;
14294;SDS011;7231;59.370;18.016;2022-09-27T10:11:27;5.93;;;5.25;;
14294;SDS011;7231;59.370;18.016;2022-09-27T10:14:06;6.82;;;6.13;;
14294;SDS011;7231;59.370;18.016;2022-09-27T10:16:38;8.15;;;6.05;;
14294;SDS011;7231;59.370;18.016;2022-09-27T10:19:08;7.32;;;6.63;;
14294;SDS011;7231;59.370;18.016;2022-09-27T10:21:39;7.47;;;6.13;;
14294;SDS011;7231;59.370;18.016;2022-09-27T10:24:11;8.32;;;6.88;;
14294;SDS011;7231;59.370;18.016;2022-09-27T10:26:44;9.55;;;7.93;;
14294;SDS011;7231;59.370;18.016;2022-09-27T10:29:26;12.80;;;9.32;;
14294;SDS011;7231;59.370;18.016;2022-09-27T10:32:03;8.88;;;7.70;;
14294;SDS011;7231;59.370;18.016;2022-09-27T10:34:44;8.23;;;7.22;;
14294;SDS011;7231;59.370;18.016;2022-09-27T10:37:13;8.52;;;7.28;;
14294;SDS011;7231;59.370;18.016;2022-09-27T10:39:44;8.35;;;7.55;;
14294;SDS011;7231;59.370;18.016;2022-09-27T10:42:19;9.55;;;6.47;;
14294;SDS011;7231;59.370;18.016;2022-09-27T10:45:18;7.47;;;6.78;;
14294;SDS011;7231;59.370;18.016;2022-09-27T10:47:52;6.72;;;6.05;;
14294;SDS011;7231;59.370;18.016;2022-09-27T10:50:22;7.20;;;6.50;;
14294;SDS011;7231;59.370;18.016;2022-09-27T10:53:12;8.48;;;6.90;;
14294;SDS011;7231;59.370;18.016;2022-09-27T10:55:45;8.25;;;7.18;;
14294;SDS011;7231;59.370;18.016;2022-09-27T10:58:16;9.30;;;7.72;;
14294;SDS011;7231;59.370;18.016;2022-09-27T11:00:54;8.55;;;7.60;;
14294;SDS011;7231;59.370;18.016;2022-09-27T11:03:23;9.32;;;7.43;;
14294;SDS011;7231;59.370;18.016;2022-09-27T11:05:54;9.00;;;8.20;;
14294;SDS011;7231;59.370;18.016;2022-09-27T11:08:28;10.95;;;8.70;;
14294;SDS011;7231;59.370;18.016;2022-09-27T11:11:06;10.25;;;9.25;;
14294;SDS011;7231;59.370;18.016;2022-09-27T11:13:55;10.52;;;9.10;;
14294;SDS011;7231;59.370;18.016;2022-09-27T11:16:29;10.95;;;9.80;;
14294;SDS011;7231;59.370;18.016;2022-09-27T11:19:12;11.07;;;9.98;;
14294;SDS011;7231;59.370;18.016;2022-09-27T11:21:55;12.27;;;10.88;;
14294;SDS011;7231;59.370;18.016;2022-09-27T11:24:33;12.30;;;10.93;;
14294;SDS011;7231;59.370;18.016;2022-09-27T11:27:16;13.25;;;11.95;;
14294;SDS011;7231;59.370;18.016;2022-09-27T11:29:58;13.57;;;11.93;;
14294;SDS011;7231;59.370;18.016;2022-09-27T11:32:36;13.00;;;11.50;;
14294;SDS011;7231;59.370;18.016;2022-09-27T11:35:23;14.02;;;12.55;;
14294;SDS011;7231;59.370;18.016;2022-09-27T11:38:02;13.98;;;12.43;;
14294;SDS011;7231;59.370;18.016;2022-09-27T11:41:06;14.55;;;13.05;;
14294;SDS011;7231;59.370;18.016;2022-09-27T11:43:48;14.95;;;13.45;;
14294;SDS011;7231;59.370;18.016;2022-09-27T11:46:29;15.13;;;13.50;;
14294;SDS011;7231;59.370;18.016;2022-09-27T11:49:12;15.68;;;13.55;;
14294;SDS011;7231;59.370;18.016;2022-09-27T11:52:21;15.40;;;12.85;;
14294;SDS011;7231;59.370;18.016;2022-09-27T11:55:09;18.05;;;15.68;;
14294;SDS011;7231;59.370;18.016;2022-09-27T11:57:47;16.13;;;13.93;;
14294;SDS011;7231;59.370;18.016;2022-09-27T12:00:29;16.45;;;14.73;;
14294;SDS011;7231;59.370;18.016;2022-09-27T12:03:18;15.88;;;12.88;;
14294;SDS011;7231;59.370;18.016;2022-09-27T12:06:04;16.02;;;13.07;;
14294;SDS011;7231;59.370;18.016;2022-09-27T12:08:43;12.88;;;11.60;;
14294;SDS011;7231;59.370;18.016;2022-09-27T12:11:18;12.82;;;11.40;;
14294;SDS011;7231;59.370;18.016;2022-09-27T12:13:51;12.35;;;11.07;;
14294;SDS011;7231;59.370;18.016;2022-09-27T12:16:24;13.63;;;12.15;;
14294;SDS011;7231;59.370;18.016;2022-09-27T12:18:54;15.00;;;13.00;;
14294;SDS011;7231;59.370;18.016;2022-09-27T12:21:24;13.85;;;12.43;;
14294;SDS011;7231;59.370;18.016;2022-09-27T12:23:53;13.60;;;11.70;;
14294;SDS011;7231;59.370;18.016;2022-09-27T12:26:24;13.02;;;11.75;;
14294;SDS011;7231;59.370;18.016;2022-09-27T12:28:58;13.30;;;11.90;;
14294;SDS011;7231;59.370;18.016;2022-09-27T12:31:33;12.55;;;11.27;;
14294;SDS011;7231;59.370;18.016;2022-09-27T12:34:06;14.10;;;12.48;;
14294;SDS011;7231;59.370;18.016;2022-09-27T12:36:48;13.18;;;11.77;;
14294;SDS011;7231;59.370;18.016;2022-09-27T12:39:20;14.38;;;12.88;;
14294;SDS011;7231;59.370;18.016;2022-09-27T12:41:52;13.10;;;11.80;;
14294;SDS011;7231;59.370;18.016;2022-09-27T12:44:27;13.48;;;12.15;;
14294;SDS011;7231;59.370;18.016;2022-09-27T12:47:05;13.95;;;12.23;;
14294;SDS011;7231;59.370;18.016;2022-09-27T12:49:44;14.43;;;11.90;;
14294;SDS011;7231;59.370;18.016;2022-09-27T12:52:29;16.30;;;12.85;;
14294;SDS011;7231;59.370;18.016;2022-09-27T12:58:09;15.85;;;12.07;;
14294;SDS011;7231;59.370;18.016;2022-09-27T13:00:50;15.00;;;11.45;;
14294;SDS011;7231;59.370;18.016;2022-09-27T13:03:30;14.55;;;12.18;;
14294;SDS011;7231;59.370;18.016;2022-09-27T13:06:23;14.38;;;12.20;;
14294;SDS011;7231;59.370;18.016;2022-09-27T13:12:01;17.63;;;12.75;;
14294;SDS011;7231;59.370;18.016;2022-09-27T13:14:38;13.50;;;11.30;;
14294;SDS011;7231;59.370;18.016;2022-09-27T13:29:24;13.32;;;11.30;;
14294;SDS011;7231;59.370;18.016;2022-09-27T13:32:01;12.20;;;10.35;;
14294;SDS011;7231;59.370;18.016;2022-09-27T13:34:38;16.08;;;10.98;;
14294;SDS011;7231;59.370;18.016;2022-09-27T13:40:20;13.15;;;11.15;;
14294;SDS011;7231;59.370;18.016;2022-09-27T13:42:54;15.23;;;11.95;;
14294;SDS011;7231;59.370;18.016;2022-09-27T13:45:39;15.82;;;11.13;;
14294;SDS011;7231;59.370;18.016;2022-09-27T13:48:16;12.73;;;10.43;;
14294;SDS011;7231;59.370;18.016;2022-09-27T13:50:50;11.38;;;10.25;;
14294;SDS011;7231;59.370;18.016;2022-09-27T13:53:24;12.18;;;9.35;;
14294;SDS011;7231;59.370;18.016;2022-09-27T13:55:56;11.68;;;9.50;;
14294;SDS011;7231;59.370;18.016;2022-09-27T13:58:41;13.32;;;9.93;;
14294;SDS011;7231;59.370;18.016;2022-09-27T14:01:17;10.73;;;9.63;;
14294;SDS011;7231;59.370;18.016;2022-09-27T14:03:51;10.75;;;8.70;;
14294;SDS011;7231;59.370;18.016;2022-09-27T14:06:22;9.70;;;8.70;;
14294;SDS011;7231;59.370;18.016;2022-09-27T14:08:55;11.57;;;9.80;;
14294;SDS011;7231;59.370;18.016;2022-09-27T14:11:27;11.95;;;9.52;;
14294;SDS011;7231;59.370;18.016;2022-09-27T14:14:01;14.10;;;10.23;;
14294;SDS011;7231;59.370;18.016;2022-09-27T14:16:31;12.00;;;9.57;;
14294;SDS011;7231;59.370;18.016;2022-09-27T14:19:02;9.77;;;8.55;;
14294;SDS011;7231;59.370;18.016;2022-09-27T14:21:31;10.35;;;9.10;;
14294;SDS011;7231;59.370;18.016;2022-09-27T14:24:18;11.02;;;9.63;;
14294;SDS011;7231;59.370;18.016;2022-09-27T14:26:47;12.15;;;10.25;;
14294;SDS011;7231;59.370;18.016;2022-09-27T14:29:19;11.65;;;9.93;;
14294;SDS011;7231;59.370;18.016;2022-09-27T14:32:01;12.82;;;9.50;;
14294;SDS011;7231;59.370;18.016;2022-09-27T14:34:30;11.25;;;9.77;;
14294;SDS011;7231;59.370;18.016;2022-09-27T14:36:58;10.48;;;9.38;;
14294;SDS011;7231;59.370;18.016;2022-09-27T14:39:44;8.93;;;8.00;;
14294;SDS011;7231;59.370;18.016;2022-09-27T14:42:19;14.32;;;9.85;;
14294;SDS011;7231;59.370;18.016;2022-09-27T14:44:51;10.05;;;8.82;;
14294;SDS011;7231;59.370;18.016;2022-09-27T14:47:22;11.05;;;8.50;;
14294;SDS011;7231;59.370;18.016;2022-09-27T14:49:54;12.43;;;8.93;;
14294;SDS011;7231;59.370;18.016;2022-09-27T14:52:24;11.15;;;8.93;;
14294;SDS011;7231;59.370;18.016;2022-09-27T14:54:59;12.05;;;8.82;;
14294;SDS011;7231;59.370;18.016;2022-09-27T14:57:28;11.45;;;8.80;;
14294;SDS011;7231;59.370;18.016;2022-09-27T15:00:08;13.55;;;9.82;;
14294;SDS011;7231;59.370;18.016;2022-09-27T15:02:42;12.98;;;9.10;;
14294;SDS011;7231;59.370;18.016;2022-09-27T15:05:12;11.65;;;9.18;;
14294;SDS011;7231;59.370;18.016;2022-09-27T15:07:43;11.45;;;9.88;;
14294;SDS011;7231;59.370;18.016;2022-09-27T15:10:13;10.02;;;8.95;;
14294;SDS011;7231;59.370;18.016;2022-09-27T15:12:43;10.90;;;9.05;;
14294;SDS011;7231;59.370;18.016;2022-09-27T15:15:17;8.95;;;8.05;;
14294;SDS011;7231;59.370;18.016;2022-09-27T15:17:49;10.98;;;8.52;;
14294;SDS011;7231;59.370;18.016;2022-09-27T15:20:18;10.00;;;8.52;;
14294;SDS011;7231;59.370;18.016;2022-09-27T15:23:00;9.57;;;8.57;;
14294;SDS011;7231;59.370;18.016;2022-09-27T15:25:29;10.57;;;9.23;;
14294;SDS011;7231;59.370;18.016;2022-09-27T15:28:02;9.90;;;8.75;;
14294;SDS011;7231;59.370;18.016;2022-09-27T15:30:34;10.32;;;8.68;;
14294;SDS011;7231;59.370;18.016;2022-09-27T15:33:03;8.98;;;8.02;;
14294;SDS011;7231;59.370;18.016;2022-09-27T15:35:34;9.90;;;8.95;;
14294;SDS011;7231;59.370;18.016;2022-09-27T15:38:12;13.90;;;8.70;;
14294;SDS011;7231;59.370;18.016;2022-09-27T15:40:55;9.35;;;8.43;;
14294;SDS011;7231;59.370;18.016;2022-09-27T15:43:30;9.15;;;7.95;;